sensor_id;sensor_type;location;lat;lon;timestamp;temperature;humidity
62583;DHT22;48641;51.676;5.808;2023-07-02T00:00:59;24.10;53.10
62583;DHT22;48641;51.676;5.808;2023-07-02T00:03:24;24.10;53.10
62583;DHT22;48641;51.676;5.808;2023-07-02T00:05:50;24.10;53.10
62583;DHT22;48641;51.676;5.808;2023-07-02T00:08:21;24.10;53.00
62583;DHT22;48641;51.676;5.808;2023-07-02T00:10:46;24.10;53.10
62583;DHT22;48641;51.676;5.808;2023-07-02T00:13:12;24.10;53.00
62583;DHT22;48641;51.676;5.808;2023-07-02T00:15:38;24.10;53.00
62583;DHT22;48641;51.676;5.808;2023-07-02T00:18:04;24.10;53.00
62583;DHT22;48641;51.676;5.808;2023-07-02T00:20:29;24.10;53.00
62583;DHT22;48641;51.676;5.808;2023-07-02T00:22:55;24.00;53.00
62583;DHT22;48641;51.676;5.808;2023-07-02T00:25:21;24.00;53.30
62583;DHT22;48641;51.676;5.808;2023-07-02T00:27:47;24.00;53.10
62583;DHT22;48641;51.676;5.808;2023-07-02T00:30:13;24.00;53.00
62583;DHT22;48641;51.676;5.808;2023-07-02T00:32:39;24.00;53.10
62583;DHT22;48641;51.676;5.808;2023-07-02T00:35:05;24.00;53.10
62583;DHT22;48641;51.676;5.808;2023-07-02T00:37:30;24.00;53.20
62583;DHT22;48641;51.676;5.808;2023-07-02T00:39:57;24.00;53.10
62583;DHT22;48641;51.676;5.808;2023-07-02T00:42:22;24.00;53.00
62583;DHT22;48641;51.676;5.808;2023-07-02T00:44:49;24.00;53.00
62583;DHT22;48641;51.676;5.808;2023-07-02T00:47:17;24.00;53.00
62583;DHT22;48641;51.676;5.808;2023-07-02T00:49:43;24.00;52.70
62583;DHT22;48641;51.676;5.808;2023-07-02T00:52:09;23.90;53.10
62583;DHT22;48641;51.676;5.808;2023-07-02T00:54:35;23.90;53.10
62583;DHT22;48641;51.676;5.808;2023-07-02T00:57:01;23.90;53.10
62583;DHT22;48641;51.676;5.808;2023-07-02T00:59:29;23.90;53.10
62583;DHT22;48641;51.676;5.808;2023-07-02T01:01:55;23.90;54.10
62583;DHT22;48641;51.676;5.808;2023-07-02T01:04:22;23.90;53.10
62583;DHT22;48641;51.676;5.808;2023-07-02T01:06:56;23.90;53.10
62583;DHT22;48641;51.676;5.808;2023-07-02T01:09:23;23.90;53.20
62583;DHT22;48641;51.676;5.808;2023-07-02T01:14:40;23.90;53.10
62583;DHT22;48641;51.676;5.808;2023-07-02T01:17:07;23.90;53.00
62583;DHT22;48641;51.676;5.808;2023-07-02T01:19:44;23.90;53.20
62583;DHT22;48641;51.676;5.808;2023-07-02T01:22:10;23.90;53.20
62583;DHT22;48641;51.676;5.808;2023-07-02T01:24:38;23.90;53.10
62583;DHT22;48641;51.676;5.808;2023-07-02T01:27:04;23.90;53.10
62583;DHT22;48641;51.676;5.808;2023-07-02T01:29:30;23.90;53.10
62583;DHT22;48641;51.676;5.808;2023-07-02T01:31:56;23.90;53.10
62583;DHT22;48641;51.676;5.808;2023-07-02T01:34:22;23.90;53.10
62583;DHT22;48641;51.676;5.808;2023-07-02T01:36:48;23.90;53.10
62583;DHT22;48641;51.676;5.808;2023-07-02T01:39:14;23.90;53.10
62583;DHT22;48641;51.676;5.808;2023-07-02T01:41:45;23.90;53.10
62583;DHT22;48641;51.676;5.808;2023-07-02T01:44:11;23.90;53.10
62583;DHT22;48641;51.676;5.808;2023-07-02T01:46:37;23.90;53.10
62583;DHT22;48641;51.676;5.808;2023-07-02T01:49:02;23.90;53.20
62583;DHT22;48641;51.676;5.808;2023-07-02T01:51:28;23.90;53.10
62583;DHT22;48641;51.676;5.808;2023-07-02T01:53:53;23.90;53.20
62583;DHT22;48641;51.676;5.808;2023-07-02T01:56:19;23.90;53.20
62583;DHT22;48641;51.676;5.808;2023-07-02T01:58:45;23.90;53.20
62583;DHT22;48641;51.676;5.808;2023-07-02T02:01:10;23.90;53.30
62583;DHT22;48641;51.676;5.808;2023-07-02T02:03:36;23.90;53.20
62583;DHT22;48641;51.676;5.808;2023-07-02T02:06:01;23.90;53.20
62583;DHT22;48641;51.676;5.808;2023-07-02T02:08:29;23.90;53.10
62583;DHT22;48641;51.676;5.808;2023-07-02T02:10:55;23.80;53.10
62583;DHT22;48641;51.676;5.808;2023-07-02T02:13:20;23.90;53.10
62583;DHT22;48641;51.676;5.808;2023-07-02T02:15:46;23.80;53.10
62583;DHT22;48641;51.676;5.808;2023-07-02T02:18:12;23.80;53.20
62583;DHT22;48641;51.676;5.808;2023-07-02T02:20:38;23.80;53.20
62583;DHT22;48641;51.676;5.808;2023-07-02T02:23:03;23.90;53.30
62583;DHT22;48641;51.676;5.808;2023-07-02T02:25:29;23.80;53.20
62583;DHT22;48641;51.676;5.808;2023-07-02T02:27:55;23.80;53.20
62583;DHT22;48641;51.676;5.808;2023-07-02T02:30:20;23.80;53.20
62583;DHT22;48641;51.676;5.808;2023-07-02T02:32:46;23.80;53.20
62583;DHT22;48641;51.676;5.808;2023-07-02T02:35:11;23.80;53.20
62583;DHT22;48641;51.676;5.808;2023-07-02T02:37:38;23.80;53.20
62583;DHT22;48641;51.676;5.808;2023-07-02T02:40:07;23.80;53.20
62583;DHT22;48641;51.676;5.808;2023-07-02T02:42:34;23.80;53.20
62583;DHT22;48641;51.676;5.808;2023-07-02T02:45:00;23.80;53.20
62583;DHT22;48641;51.676;5.808;2023-07-02T02:47:25;23.80;53.20
62583;DHT22;48641;51.676;5.808;2023-07-02T02:49:51;23.80;53.20
62583;DHT22;48641;51.676;5.808;2023-07-02T02:52:17;23.80;53.20
62583;DHT22;48641;51.676;5.808;2023-07-02T02:54:43;23.80;53.20
62583;DHT22;48641;51.676;5.808;2023-07-02T02:57:09;23.80;53.20
62583;DHT22;48641;51.676;5.808;2023-07-02T02:59:34;23.80;53.20
62583;DHT22;48641;51.676;5.808;2023-07-02T03:02:00;23.80;53.20
62583;DHT22;48641;51.676;5.808;2023-07-02T03:04:25;23.80;53.20
62583;DHT22;48641;51.676;5.808;2023-07-02T03:06:52;23.80;53.20
62583;DHT22;48641;51.676;5.808;2023-07-02T03:09:21;23.80;53.20
62583;DHT22;48641;51.676;5.808;2023-07-02T03:11:49;23.80;53.20
62583;DHT22;48641;51.676;5.808;2023-07-02T03:14:15;23.80;53.30
62583;DHT22;48641;51.676;5.808;2023-07-02T03:16:41;23.70;53.20
62583;DHT22;48641;51.676;5.808;2023-07-02T03:19:07;23.70;53.30
62583;DHT22;48641;51.676;5.808;2023-07-02T03:21:33;23.70;53.30
62583;DHT22;48641;51.676;5.808;2023-07-02T03:23:59;23.70;53.30
62583;DHT22;48641;51.676;5.808;2023-07-02T03:26:24;23.70;53.20
62583;DHT22;48641;51.676;5.808;2023-07-02T03:28:50;23.70;53.30
62583;DHT22;48641;51.676;5.808;2023-07-02T03:31:15;23.80;53.30
62583;DHT22;48641;51.676;5.808;2023-07-02T03:33:41;23.70;53.20
62583;DHT22;48641;51.676;5.808;2023-07-02T03:36:07;23.80;53.20
62583;DHT22;48641;51.676;5.808;2023-07-02T03:38:32;23.80;53.20
62583;DHT22;48641;51.676;5.808;2023-07-02T03:40:58;23.70;53.20
62583;DHT22;48641;51.676;5.808;2023-07-02T03:43:24;23.70;53.20
62583;DHT22;48641;51.676;5.808;2023-07-02T03:45:53;23.70;53.20
62583;DHT22;48641;51.676;5.808;2023-07-02T03:48:18;23.70;53.20
62583;DHT22;48641;51.676;5.808;2023-07-02T03:50:44;23.70;53.30
62583;DHT22;48641;51.676;5.808;2023-07-02T03:53:09;23.70;53.30
62583;DHT22;48641;51.676;5.808;2023-07-02T03:55:35;23.70;53.30
62583;DHT22;48641;51.676;5.808;2023-07-02T03:58:01;23.60;53.30
62583;DHT22;48641;51.676;5.808;2023-07-02T04:00:27;23.60;53.30
62583;DHT22;48641;51.676;5.808;2023-07-02T04:02:52;23.60;53.30
62583;DHT22;48641;51.676;5.808;2023-07-02T04:05:18;23.60;53.20
62583;DHT22;48641;51.676;5.808;2023-07-02T04:07:45;23.60;53.30
62583;DHT22;48641;51.676;5.808;2023-07-02T04:10:11;23.70;53.30
62583;DHT22;48641;51.676;5.808;2023-07-02T04:12:36;23.70;53.20
62583;DHT22;48641;51.676;5.808;2023-07-02T04:15:02;23.70;53.30
62583;DHT22;48641;51.676;5.808;2023-07-02T04:17:28;23.70;53.20
62583;DHT22;48641;51.676;5.808;2023-07-02T04:19:54;23.70;54.20
62583;DHT22;48641;51.676;5.808;2023-07-02T04:22:20;23.70;53.20
62583;DHT22;48641;51.676;5.808;2023-07-02T04:24:46;23.70;53.30
62583;DHT22;48641;51.676;5.808;2023-07-02T04:27:17;23.60;53.20
62583;DHT22;48641;51.676;5.808;2023-07-02T04:29:43;23.60;53.30
62583;DHT22;48641;51.676;5.808;2023-07-02T04:32:09;23.60;53.10
62583;DHT22;48641;51.676;5.808;2023-07-02T04:34:37;23.50;53.40
62583;DHT22;48641;51.676;5.808;2023-07-02T04:37:06;23.50;53.40
62583;DHT22;48641;51.676;5.808;2023-07-02T04:39:32;23.50;53.40
62583;DHT22;48641;51.676;5.808;2023-07-02T04:41:59;23.50;53.40
62583;DHT22;48641;51.676;5.808;2023-07-02T04:44:24;23.50;53.40
62583;DHT22;48641;51.676;5.808;2023-07-02T04:47:00;23.50;53.40
62583;DHT22;48641;51.676;5.808;2023-07-02T04:49:26;23.60;53.40
62583;DHT22;48641;51.676;5.808;2023-07-02T04:51:52;23.60;53.30
62583;DHT22;48641;51.676;5.808;2023-07-02T04:54:20;23.60;53.30
62583;DHT22;48641;51.676;5.808;2023-07-02T04:56:46;23.60;53.30
62583;DHT22;48641;51.676;5.808;2023-07-02T04:59:14;23.60;53.30
62583;DHT22;48641;51.676;5.808;2023-07-02T05:01:39;23.60;53.30
62583;DHT22;48641;51.676;5.808;2023-07-02T05:04:06;23.60;53.30
62583;DHT22;48641;51.676;5.808;2023-07-02T05:06:31;23.60;53.30
62583;DHT22;48641;51.676;5.808;2023-07-02T05:08:57;23.60;53.40
62583;DHT22;48641;51.676;5.808;2023-07-02T05:11:22;23.50;53.30
62583;DHT22;48641;51.676;5.808;2023-07-02T05:13:48;23.50;53.30
62583;DHT22;48641;51.676;5.808;2023-07-02T05:16:14;23.50;53.30
62583;DHT22;48641;51.676;5.808;2023-07-02T05:18:40;23.50;53.30
62583;DHT22;48641;51.676;5.808;2023-07-02T05:21:06;23.50;53.30
62583;DHT22;48641;51.676;5.808;2023-07-02T05:23:32;23.50;53.30
62583;DHT22;48641;51.676;5.808;2023-07-02T05:25:57;23.50;53.30
62583;DHT22;48641;51.676;5.808;2023-07-02T05:28:24;23.50;53.20
62583;DHT22;48641;51.676;5.808;2023-07-02T05:30:50;23.50;53.20
62583;DHT22;48641;51.676;5.808;2023-07-02T05:33:15;23.50;53.30
62583;DHT22;48641;51.676;5.808;2023-07-02T05:35:41;23.50;53.20
62583;DHT22;48641;51.676;5.808;2023-07-02T05:38:07;23.50;53.20
62583;DHT22;48641;51.676;5.808;2023-07-02T05:40:32;23.50;53.20
62583;DHT22;48641;51.676;5.808;2023-07-02T05:42:58;23.50;53.20
62583;DHT22;48641;51.676;5.808;2023-07-02T05:45:24;23.50;53.30
62583;DHT22;48641;51.676;5.808;2023-07-02T05:47:49;23.50;53.30
62583;DHT22;48641;51.676;5.808;2023-07-02T05:50:15;23.50;53.20
62583;DHT22;48641;51.676;5.808;2023-07-02T05:52:41;23.50;53.40
62583;DHT22;48641;51.676;5.808;2023-07-02T05:55:09;23.50;53.30
62583;DHT22;48641;51.676;5.808;2023-07-02T05:57:38;23.50;53.30
62583;DHT22;48641;51.676;5.808;2023-07-02T06:00:07;23.50;53.30
62583;DHT22;48641;51.676;5.808;2023-07-02T06:02:33;23.50;53.20
62583;DHT22;48641;51.676;5.808;2023-07-02T06:04:59;23.50;53.20
62583;DHT22;48641;51.676;5.808;2023-07-02T06:07:30;23.40;53.50
62583;DHT22;48641;51.676;5.808;2023-07-02T06:09:55;23.40;53.40
62583;DHT22;48641;51.676;5.808;2023-07-02T06:12:21;23.40;53.40
62583;DHT22;48641;51.676;5.808;2023-07-02T06:14:47;23.40;53.30
62583;DHT22;48641;51.676;5.808;2023-07-02T06:17:13;23.40;53.30
62583;DHT22;48641;51.676;5.808;2023-07-02T06:19:39;23.50;53.40
62583;DHT22;48641;51.676;5.808;2023-07-02T06:22:04;23.40;53.30
62583;DHT22;48641;51.676;5.808;2023-07-02T06:24:30;23.40;53.30
62583;DHT22;48641;51.676;5.808;2023-07-02T06:26:56;23.40;53.20
62583;DHT22;48641;51.676;5.808;2023-07-02T06:29:24;23.40;53.20
62583;DHT22;48641;51.676;5.808;2023-07-02T06:31:50;23.40;53.20
62583;DHT22;48641;51.676;5.808;2023-07-02T06:34:16;23.40;53.30
62583;DHT22;48641;51.676;5.808;2023-07-02T06:36:42;23.40;53.30
62583;DHT22;48641;51.676;5.808;2023-07-02T06:39:08;23.40;53.30
62583;DHT22;48641;51.676;5.808;2023-07-02T06:41:35;23.40;53.30
62583;DHT22;48641;51.676;5.808;2023-07-02T06:44:01;23.40;53.30
62583;DHT22;48641;51.676;5.808;2023-07-02T06:46:27;23.40;53.20
62583;DHT22;48641;51.676;5.808;2023-07-02T06:48:52;23.40;53.20
62583;DHT22;48641;51.676;5.808;2023-07-02T06:51:18;23.40;53.20
62583;DHT22;48641;51.676;5.808;2023-07-02T06:53:45;23.40;53.10
62583;DHT22;48641;51.676;5.808;2023-07-02T06:56:10;23.40;53.20
62583;DHT22;48641;51.676;5.808;2023-07-02T06:58:36;23.40;53.10
62583;DHT22;48641;51.676;5.808;2023-07-02T07:01:02;23.40;53.10
62583;DHT22;48641;51.676;5.808;2023-07-02T07:03:28;23.40;53.10
62583;DHT22;48641;51.676;5.808;2023-07-02T07:05:54;23.40;53.10
62583;DHT22;48641;51.676;5.808;2023-07-02T07:08:19;23.40;53.10
62583;DHT22;48641;51.676;5.808;2023-07-02T07:10:45;23.40;53.10
62583;DHT22;48641;51.676;5.808;2023-07-02T07:13:12;23.50;53.10
62583;DHT22;48641;51.676;5.808;2023-07-02T07:15:37;23.40;53.10
62583;DHT22;48641;51.676;5.808;2023-07-02T07:18:03;23.40;53.10
62583;DHT22;48641;51.676;5.808;2023-07-02T07:20:30;23.40;53.10
62583;DHT22;48641;51.676;5.808;2023-07-02T07:22:56;23.40;53.10
62583;DHT22;48641;51.676;5.808;2023-07-02T07:25:22;23.40;53.10
62583;DHT22;48641;51.676;5.808;2023-07-02T07:27:48;23.40;53.20
62583;DHT22;48641;51.676;5.808;2023-07-02T07:30:14;23.40;53.10
62583;DHT22;48641;51.676;5.808;2023-07-02T07:32:40;23.40;53.10
62583;DHT22;48641;51.676;5.808;2023-07-02T07:35:07;23.40;53.10
62583;DHT22;48641;51.676;5.808;2023-07-02T07:37:33;23.40;53.00
62583;DHT22;48641;51.676;5.808;2023-07-02T07:39:58;23.40;53.00
62583;DHT22;48641;51.676;5.808;2023-07-02T07:42:24;23.40;52.90
62583;DHT22;48641;51.676;5.808;2023-07-02T07:44:49;23.40;52.90
62583;DHT22;48641;51.676;5.808;2023-07-02T07:47:15;23.40;52.90
62583;DHT22;48641;51.676;5.808;2023-07-02T07:49:41;23.40;52.90
62583;DHT22;48641;51.676;5.808;2023-07-02T07:52:07;23.40;53.00
62583;DHT22;48641;51.676;5.808;2023-07-02T07:54:33;23.40;53.00
62583;DHT22;48641;51.676;5.808;2023-07-02T07:57:01;23.40;53.00
62583;DHT22;48641;51.676;5.808;2023-07-02T07:59:27;23.40;52.90
62583;DHT22;48641;51.676;5.808;2023-07-02T08:01:53;23.30;52.90
62583;DHT22;48641;51.676;5.808;2023-07-02T08:04:18;23.30;52.90
62583;DHT22;48641;51.676;5.808;2023-07-02T08:06:44;23.40;53.00
62583;DHT22;48641;51.676;5.808;2023-07-02T08:09:09;23.40;52.90
62583;DHT22;48641;51.676;5.808;2023-07-02T08:11:36;23.30;53.00
62583;DHT22;48641;51.676;5.808;2023-07-02T08:14:01;23.30;52.90
62583;DHT22;48641;51.676;5.808;2023-07-02T08:16:27;23.40;52.90
62583;DHT22;48641;51.676;5.808;2023-07-02T08:18:52;23.40;52.90
62583;DHT22;48641;51.676;5.808;2023-07-02T08:21:18;23.40;52.80
62583;DHT22;48641;51.676;5.808;2023-07-02T08:23:44;23.40;52.80
62583;DHT22;48641;51.676;5.808;2023-07-02T08:26:10;23.40;52.70
62583;DHT22;48641;51.676;5.808;2023-07-02T08:28:39;23.40;52.60
62583;DHT22;48641;51.676;5.808;2023-07-02T08:31:05;23.40;52.70
62583;DHT22;48641;51.676;5.808;2023-07-02T08:33:31;23.40;52.70
62583;DHT22;48641;51.676;5.808;2023-07-02T08:35:56;23.40;52.60
62583;DHT22;48641;51.676;5.808;2023-07-02T08:38:23;23.40;52.60
62583;DHT22;48641;51.676;5.808;2023-07-02T08:40:49;23.30;52.70
62583;DHT22;48641;51.676;5.808;2023-07-02T08:43:15;23.30;52.90
62583;DHT22;48641;51.676;5.808;2023-07-02T08:45:41;23.30;52.80
62583;DHT22;48641;51.676;5.808;2023-07-02T08:48:07;23.30;52.80
62583;DHT22;48641;51.676;5.808;2023-07-02T08:50:33;23.30;52.80
62583;DHT22;48641;51.676;5.808;2023-07-02T08:52:59;23.30;52.80
62583;DHT22;48641;51.676;5.808;2023-07-02T08:55:24;23.30;52.70
62583;DHT22;48641;51.676;5.808;2023-07-02T08:57:53;23.40;52.70
62583;DHT22;48641;51.676;5.808;2023-07-02T09:00:19;23.40;52.70
62583;DHT22;48641;51.676;5.808;2023-07-02T09:02:45;23.40;52.70
62583;DHT22;48641;51.676;5.808;2023-07-02T09:05:12;23.40;52.70
62583;DHT22;48641;51.676;5.808;2023-07-02T09:07:48;23.40;52.80
62583;DHT22;48641;51.676;5.808;2023-07-02T09:10:30;23.40;52.70
62583;DHT22;48641;51.676;5.808;2023-07-02T09:13:06;23.40;52.80
62583;DHT22;48641;51.676;5.808;2023-07-02T09:15:39;23.30;52.80
62583;DHT22;48641;51.676;5.808;2023-07-02T09:18:15;23.30;52.90
62583;DHT22;48641;51.676;5.808;2023-07-02T09:20:42;23.30;52.60
62583;DHT22;48641;51.676;5.808;2023-07-02T09:23:07;23.30;52.50
62583;DHT22;48641;51.676;5.808;2023-07-02T09:25:40;23.30;52.60
62583;DHT22;48641;51.676;5.808;2023-07-02T09:28:20;23.30;52.70
62583;DHT22;48641;51.676;5.808;2023-07-02T09:30:56;23.30;52.60
62583;DHT22;48641;51.676;5.808;2023-07-02T09:33:27;23.30;52.70
62583;DHT22;48641;51.676;5.808;2023-07-02T09:35:53;23.30;52.70
62583;DHT22;48641;51.676;5.808;2023-07-02T09:38:20;23.30;52.80
62583;DHT22;48641;51.676;5.808;2023-07-02T09:40:50;23.30;52.60
62583;DHT22;48641;51.676;5.808;2023-07-02T09:43:16;23.40;52.50
62583;DHT22;48641;51.676;5.808;2023-07-02T09:45:47;23.30;52.40
62583;DHT22;48641;51.676;5.808;2023-07-02T09:48:17;23.30;52.40
62583;DHT22;48641;51.676;5.808;2023-07-02T09:50:48;23.30;52.50
62583;DHT22;48641;51.676;5.808;2023-07-02T09:53:14;23.40;52.60
62583;DHT22;48641;51.676;5.808;2023-07-02T09:55:42;23.30;52.60
62583;DHT22;48641;51.676;5.808;2023-07-02T09:58:08;23.30;52.60
62583;DHT22;48641;51.676;5.808;2023-07-02T10:00:34;23.40;52.60
62583;DHT22;48641;51.676;5.808;2023-07-02T10:03:00;23.30;52.50
62583;DHT22;48641;51.676;5.808;2023-07-02T10:05:31;23.30;52.60
62583;DHT22;48641;51.676;5.808;2023-07-02T10:07:57;23.30;52.40
62583;DHT22;48641;51.676;5.808;2023-07-02T10:10:30;23.30;52.50
62583;DHT22;48641;51.676;5.808;2023-07-02T10:12:57;23.40;53.40
62583;DHT22;48641;51.676;5.808;2023-07-02T10:15:29;23.30;52.50
62583;DHT22;48641;51.676;5.808;2023-07-02T10:17:58;23.40;52.40
62583;DHT22;48641;51.676;5.808;2023-07-02T10:20:37;23.30;52.40
62583;DHT22;48641;51.676;5.808;2023-07-02T10:23:04;23.40;52.50
62583;DHT22;48641;51.676;5.808;2023-07-02T10:25:31;23.40;52.50
62583;DHT22;48641;51.676;5.808;2023-07-02T10:27:57;23.30;52.50
62583;DHT22;48641;51.676;5.808;2023-07-02T10:30:36;23.30;52.40
62583;DHT22;48641;51.676;5.808;2023-07-02T10:33:16;23.40;52.40
62583;DHT22;48641;51.676;5.808;2023-07-02T10:35:44;23.40;52.50
62583;DHT22;48641;51.676;5.808;2023-07-02T10:38:22;23.30;52.50
62583;DHT22;48641;51.676;5.808;2023-07-02T10:40:58;23.30;52.50
62583;DHT22;48641;51.676;5.808;2023-07-02T10:43:28;23.40;52.60
62583;DHT22;48641;51.676;5.808;2023-07-02T10:45:55;23.40;53.60
62583;DHT22;48641;51.676;5.808;2023-07-02T10:48:21;23.40;52.60
62583;DHT22;48641;51.676;5.808;2023-07-02T10:50:46;23.40;52.50
62583;DHT22;48641;51.676;5.808;2023-07-02T10:53:19;23.40;52.50
62583;DHT22;48641;51.676;5.808;2023-07-02T10:55:45;23.40;52.60
62583;DHT22;48641;51.676;5.808;2023-07-02T10:58:12;23.40;52.50
62583;DHT22;48641;51.676;5.808;2023-07-02T11:00:49;23.40;52.40
62583;DHT22;48641;51.676;5.808;2023-07-02T11:03:21;23.40;52.40
62583;DHT22;48641;51.676;5.808;2023-07-02T11:05:48;23.40;52.40
62583;DHT22;48641;51.676;5.808;2023-07-02T11:08:14;23.40;52.40
62583;DHT22;48641;51.676;5.808;2023-07-02T11:10:40;23.40;52.40
62583;DHT22;48641;51.676;5.808;2023-07-02T11:15:40;23.40;52.40
62583;DHT22;48641;51.676;5.808;2023-07-02T11:18:17;23.40;52.50
62583;DHT22;48641;51.676;5.808;2023-07-02T11:20:44;23.40;52.50
62583;DHT22;48641;51.676;5.808;2023-07-02T11:23:20;23.40;52.50
62583;DHT22;48641;51.676;5.808;2023-07-02T11:26:03;23.50;52.60
62583;DHT22;48641;51.676;5.808;2023-07-02T11:28:30;23.40;52.50
62583;DHT22;48641;51.676;5.808;2023-07-02T11:30:57;23.40;52.60
62583;DHT22;48641;51.676;5.808;2023-07-02T11:33:36;23.40;52.60
62583;DHT22;48641;51.676;5.808;2023-07-02T11:36:06;23.40;52.50
62583;DHT22;48641;51.676;5.808;2023-07-02T11:38:36;23.40;52.50
62583;DHT22;48641;51.676;5.808;2023-07-02T11:41:05;23.40;52.60
62583;DHT22;48641;51.676;5.808;2023-07-02T11:43:31;23.50;52.60
62583;DHT22;48641;51.676;5.808;2023-07-02T11:45:56;23.40;52.50
62583;DHT22;48641;51.676;5.808;2023-07-02T11:48:22;23.40;52.80
62583;DHT22;48641;51.676;5.808;2023-07-02T11:50:48;23.40;52.80
62583;DHT22;48641;51.676;5.808;2023-07-02T11:53:13;23.40;52.80
62583;DHT22;48641;51.676;5.808;2023-07-02T11:55:39;23.40;52.70
62583;DHT22;48641;51.676;5.808;2023-07-02T11:58:04;23.50;52.70
62583;DHT22;48641;51.676;5.808;2023-07-02T12:00:30;23.50;52.60
62583;DHT22;48641;51.676;5.808;2023-07-02T12:02:56;23.50;52.70
62583;DHT22;48641;51.676;5.808;2023-07-02T12:05:21;23.50;52.80
62583;DHT22;48641;51.676;5.808;2023-07-02T12:07:47;23.50;52.80
62583;DHT22;48641;51.676;5.808;2023-07-02T12:10:12;23.50;52.70
62583;DHT22;48641;51.676;5.808;2023-07-02T12:12:38;23.50;52.70
62583;DHT22;48641;51.676;5.808;2023-07-02T12:15:04;23.50;52.70
62583;DHT22;48641;51.676;5.808;2023-07-02T12:17:30;23.50;52.80
62583;DHT22;48641;51.676;5.808;2023-07-02T12:19:56;23.50;52.70
62583;DHT22;48641;51.676;5.808;2023-07-02T12:22:22;23.60;52.80
62583;DHT22;48641;51.676;5.808;2023-07-02T12:24:48;23.60;52.70
62583;DHT22;48641;51.676;5.808;2023-07-02T12:27:15;23.60;52.70
62583;DHT22;48641;51.676;5.808;2023-07-02T12:29:41;23.60;52.70
62583;DHT22;48641;51.676;5.808;2023-07-02T12:32:07;23.60;52.60
62583;DHT22;48641;51.676;5.808;2023-07-02T12:34:32;23.60;52.70
62583;DHT22;48641;51.676;5.808;2023-07-02T12:36:58;23.60;52.70
62583;DHT22;48641;51.676;5.808;2023-07-02T12:39:23;23.60;52.70
62583;DHT22;48641;51.676;5.808;2023-07-02T12:41:49;23.60;52.70
62583;DHT22;48641;51.676;5.808;2023-07-02T12:44:15;23.60;52.70
62583;DHT22;48641;51.676;5.808;2023-07-02T12:46:41;23.60;52.70
62583;DHT22;48641;51.676;5.808;2023-07-02T12:49:06;23.60;52.70
62583;DHT22;48641;51.676;5.808;2023-07-02T12:51:32;23.60;52.60
62583;DHT22;48641;51.676;5.808;2023-07-02T12:53:58;23.60;52.60
62583;DHT22;48641;51.676;5.808;2023-07-02T12:56:23;23.60;52.60
62583;DHT22;48641;51.676;5.808;2023-07-02T12:58:51;23.60;52.70
62583;DHT22;48641;51.676;5.808;2023-07-02T13:01:17;23.70;52.50
62583;DHT22;48641;51.676;5.808;2023-07-02T13:03:46;23.70;52.40
62583;DHT22;48641;51.676;5.808;2023-07-02T13:06:17;23.70;52.20
62583;DHT22;48641;51.676;5.808;2023-07-02T13:08:42;23.70;52.10
62583;DHT22;48641;51.676;5.808;2023-07-02T13:11:08;23.70;51.80
62583;DHT22;48641;51.676;5.808;2023-07-02T13:13:35;23.70;51.90
62583;DHT22;48641;51.676;5.808;2023-07-02T13:16:02;23.70;51.70
62583;DHT22;48641;51.676;5.808;2023-07-02T13:18:27;23.70;51.70
62583;DHT22;48641;51.676;5.808;2023-07-02T13:20:53;23.80;50.90
62583;DHT22;48641;51.676;5.808;2023-07-02T13:23:18;23.80;49.60
62583;DHT22;48641;51.676;5.808;2023-07-02T13:25:44;23.80;49.20
62583;DHT22;48641;51.676;5.808;2023-07-02T13:28:09;23.80;48.50
62583;DHT22;48641;51.676;5.808;2023-07-02T13:30:35;23.70;48.80
62583;DHT22;48641;51.676;5.808;2023-07-02T13:33:01;23.80;49.10
62583;DHT22;48641;51.676;5.808;2023-07-02T13:35:26;23.80;49.50
62583;DHT22;48641;51.676;5.808;2023-07-02T13:37:52;23.80;49.60
62583;DHT22;48641;51.676;5.808;2023-07-02T13:40:18;23.80;49.70
62583;DHT22;48641;51.676;5.808;2023-07-02T13:42:44;23.80;49.80
62583;DHT22;48641;51.676;5.808;2023-07-02T13:45:10;23.80;50.10
62583;DHT22;48641;51.676;5.808;2023-07-02T13:47:36;23.80;50.10
62583;DHT22;48641;51.676;5.808;2023-07-02T13:50:02;23.80;49.20
62583;DHT22;48641;51.676;5.808;2023-07-02T13:52:29;23.80;48.70
62583;DHT22;48641;51.676;5.808;2023-07-02T13:54:55;23.80;48.90
62583;DHT22;48641;51.676;5.808;2023-07-02T13:57:20;23.80;49.50
62583;DHT22;48641;51.676;5.808;2023-07-02T13:59:46;23.80;49.10
62583;DHT22;48641;51.676;5.808;2023-07-02T14:02:11;23.80;48.70
62583;DHT22;48641;51.676;5.808;2023-07-02T14:04:37;23.80;48.90
62583;DHT22;48641;51.676;5.808;2023-07-02T14:07:03;23.80;48.90
62583;DHT22;48641;51.676;5.808;2023-07-02T14:09:29;23.80;49.00
62583;DHT22;48641;51.676;5.808;2023-07-02T14:11:55;23.80;48.90
62583;DHT22;48641;51.676;5.808;2023-07-02T14:14:20;23.80;48.70
62583;DHT22;48641;51.676;5.808;2023-07-02T14:16:46;23.80;48.20
62583;DHT22;48641;51.676;5.808;2023-07-02T14:19:12;23.80;48.40
62583;DHT22;48641;51.676;5.808;2023-07-02T14:21:37;23.80;48.50
62583;DHT22;48641;51.676;5.808;2023-07-02T14:24:03;23.80;48.70
62583;DHT22;48641;51.676;5.808;2023-07-02T14:26:30;23.80;48.60
62583;DHT22;48641;51.676;5.808;2023-07-02T14:28:55;23.80;48.70
62583;DHT22;48641;51.676;5.808;2023-07-02T14:31:21;23.80;48.90
62583;DHT22;48641;51.676;5.808;2023-07-02T14:33:47;23.80;48.90
62583;DHT22;48641;51.676;5.808;2023-07-02T14:36:13;23.80;48.60
62583;DHT22;48641;51.676;5.808;2023-07-02T14:38:38;23.80;48.30
62583;DHT22;48641;51.676;5.808;2023-07-02T14:41:04;23.80;49.50
62583;DHT22;48641;51.676;5.808;2023-07-02T14:43:31;23.80;50.00
62583;DHT22;48641;51.676;5.808;2023-07-02T14:45:59;23.80;48.90
62583;DHT22;48641;51.676;5.808;2023-07-02T14:48:24;23.80;48.50
62583;DHT22;48641;51.676;5.808;2023-07-02T14:50:52;23.80;48.70
62583;DHT22;48641;51.676;5.808;2023-07-02T14:53:19;23.80;48.90
62583;DHT22;48641;51.676;5.808;2023-07-02T14:55:45;23.80;48.80
62583;DHT22;48641;51.676;5.808;2023-07-02T14:58:12;23.80;48.30
62583;DHT22;48641;51.676;5.808;2023-07-02T15:00:48;23.90;48.50
62583;DHT22;48641;51.676;5.808;2023-07-02T15:03:15;23.90;48.60
62583;DHT22;48641;51.676;5.808;2023-07-02T15:05:41;23.90;48.30
62583;DHT22;48641;51.676;5.808;2023-07-02T15:08:08;23.80;48.40
62583;DHT22;48641;51.676;5.808;2023-07-02T15:10:34;23.90;48.80
62583;DHT22;48641;51.676;5.808;2023-07-02T15:13:00;23.90;48.90
62583;DHT22;48641;51.676;5.808;2023-07-02T15:15:26;23.80;48.70
62583;DHT22;48641;51.676;5.808;2023-07-02T15:17:52;23.90;48.30
62583;DHT22;48641;51.676;5.808;2023-07-02T15:20:17;23.90;48.30
62583;DHT22;48641;51.676;5.808;2023-07-02T15:22:43;23.90;48.80
62583;DHT22;48641;51.676;5.808;2023-07-02T15:25:09;23.90;48.30
62583;DHT22;48641;51.676;5.808;2023-07-02T15:27:34;23.90;48.10
62583;DHT22;48641;51.676;5.808;2023-07-02T15:30:00;23.90;48.40
62583;DHT22;48641;51.676;5.808;2023-07-02T15:32:26;23.90;48.60